sensor_id;sensor_type;location;lat;lon;timestamp;P1;durP1;ratioP1;P2;durP2;ratioP2
18592;SDS011;9426;54.118;17.948;2024-02-16T00:02:07;53.83;;;23.87;;
18592;SDS011;9426;54.118;17.948;2024-02-16T00:07:32;57.37;;;26.23;;
18592;SDS011;9426;54.118;17.948;2024-02-16T00:12:58;59.70;;;26.90;;
18592;SDS011;9426;54.118;17.948;2024-02-16T00:18:29;59.33;;;27.53;;
18592;SDS011;9426;54.118;17.948;2024-02-16T00:23:55;55.03;;;26.77;;
18592;SDS011;9426;54.118;17.948;2024-02-16T00:29:20;57.27;;;27.67;;
18592;SDS011;9426;54.118;17.948;2024-02-16T00:34:48;55.97;;;26.27;;
18592;SDS011;9426;54.118;17.948;2024-02-16T00:40:17;61.90;;;28.77;;
18592;SDS011;9426;54.118;17.948;2024-02-16T00:45:43;112.10;;;35.30;;
18592;SDS011;9426;54.118;17.948;2024-02-16T00:51:11;73.33;;;32.60;;
18592;SDS011;9426;54.118;17.948;2024-02-16T00:56:37;119.77;;;39.40;;
18592;SDS011;9426;54.118;17.948;2024-02-16T01:02:03;87.53;;;37.23;;
18592;SDS011;9426;54.118;17.948;2024-02-16T01:07:30;88.30;;;37.47;;
18592;SDS011;9426;54.118;17.948;2024-02-16T01:12:59;93.40;;;38.30;;
18592;SDS011;9426;54.118;17.948;2024-02-16T01:18:28;119.93;;;43.17;;
18592;SDS011;9426;54.118;17.948;2024-02-16T01:23:59;101.33;;;40.23;;
18592;SDS011;9426;54.118;17.948;2024-02-16T01:29:26;93.03;;;36.60;;
18592;SDS011;9426;54.118;17.948;2024-02-16T01:34:51;101.70;;;38.10;;
18592;SDS011;9426;54.118;17.948;2024-02-16T01:40:19;104.50;;;41.23;;
18592;SDS011;9426;54.118;17.948;2024-02-16T01:45:45;105.90;;;41.20;;
18592;SDS011;9426;54.118;17.948;2024-02-16T01:51:11;91.00;;;38.43;;
18592;SDS011;9426;54.118;17.948;2024-02-16T01:56:38;94.07;;;40.57;;
18592;SDS011;9426;54.118;17.948;2024-02-16T02:02:04;94.00;;;40.10;;
18592;SDS011;9426;54.118;17.948;2024-02-16T02:07:30;123.23;;;44.93;;
18592;SDS011;9426;54.118;17.948;2024-02-16T02:12:57;104.13;;;42.60;;
18592;SDS011;9426;54.118;17.948;2024-02-16T02:18:23;132.57;;;48.53;;
18592;SDS011;9426;54.118;17.948;2024-02-16T02:23:50;126.77;;;46.20;;
18592;SDS011;9426;54.118;17.948;2024-02-16T02:29:16;110.47;;;44.97;;
18592;SDS011;9426;54.118;17.948;2024-02-16T02:34:42;187.37;;;52.73;;
18592;SDS011;9426;54.118;17.948;2024-02-16T02:40:11;118.50;;;45.90;;
18592;SDS011;9426;54.118;17.948;2024-02-16T02:45:37;129.30;;;48.20;;
18592;SDS011;9426;54.118;17.948;2024-02-16T02:51:02;124.10;;;49.30;;
18592;SDS011;9426;54.118;17.948;2024-02-16T02:56:29;113.63;;;46.47;;
18592;SDS011;9426;54.118;17.948;2024-02-16T03:01:55;120.67;;;47.47;;
18592;SDS011;9426;54.118;17.948;2024-02-16T03:07:23;129.17;;;49.93;;
18592;SDS011;9426;54.118;17.948;2024-02-16T03:12:53;119.07;;;48.10;;
18592;SDS011;9426;54.118;17.948;2024-02-16T03:18:18;159.73;;;55.57;;
18592;SDS011;9426;54.118;17.948;2024-02-16T03:23:44;122.33;;;49.60;;
18592;SDS011;9426;54.118;17.948;2024-02-16T03:29:11;162.37;;;56.10;;
18592;SDS011;9426;54.118;17.948;2024-02-16T03:34:39;175.83;;;59.27;;
18592;SDS011;9426;54.118;17.948;2024-02-16T03:40:05;124.93;;;52.40;;
18592;SDS011;9426;54.118;17.948;2024-02-16T03:45:32;111.40;;;49.60;;
18592;SDS011;9426;54.118;17.948;2024-02-16T03:50:58;104.97;;;48.00;;
18592;SDS011;9426;54.118;17.948;2024-02-16T03:56:23;96.87;;;47.53;;
18592;SDS011;9426;54.118;17.948;2024-02-16T04:01:51;147.23;;;55.47;;
18592;SDS011;9426;54.118;17.948;2024-02-16T04:07:16;91.30;;;43.60;;
18592;SDS011;9426;54.118;17.948;2024-02-16T04:12:41;104.10;;;47.23;;
18592;SDS011;9426;54.118;17.948;2024-02-16T04:18:07;91.97;;;45.40;;
18592;SDS011;9426;54.118;17.948;2024-02-16T04:23:33;99.90;;;46.67;;
18592;SDS011;9426;54.118;17.948;2024-02-16T04:28:58;175.73;;;56.87;;
18592;SDS011;9426;54.118;17.948;2024-02-16T04:34:24;85.20;;;42.97;;
18592;SDS011;9426;54.118;17.948;2024-02-16T04:39:49;93.60;;;42.97;;
18592;SDS011;9426;54.118;17.948;2024-02-16T04:45:14;78.07;;;39.90;;
18592;SDS011;9426;54.118;17.948;2024-02-16T04:50:41;84.03;;;41.43;;
18592;SDS011;9426;54.118;17.948;2024-02-16T04:56:06;74.97;;;39.83;;
18592;SDS011;9426;54.118;17.948;2024-02-16T05:01:31;77.77;;;39.43;;
18592;SDS011;9426;54.118;17.948;2024-02-16T05:07:00;72.90;;;37.90;;
18592;SDS011;9426;54.118;17.948;2024-02-16T05:12:25;63.57;;;35.23;;
18592;SDS011;9426;54.118;17.948;2024-02-16T05:17:50;69.23;;;35.37;;
18592;SDS011;9426;54.118;17.948;2024-02-16T05:23:17;65.37;;;34.50;;
18592;SDS011;9426;54.118;17.948;2024-02-16T05:28:42;64.17;;;33.37;;
18592;SDS011;9426;54.118;17.948;2024-02-16T05:34:08;66.13;;;32.73;;
18592;SDS011;9426;54.118;17.948;2024-02-16T05:39:35;62.63;;;31.80;;
18592;SDS011;9426;54.118;17.948;2024-02-16T05:45:16;60.40;;;31.47;;
18592;SDS011;9426;54.118;17.948;2024-02-16T05:50:41;60.00;;;31.50;;
18592;SDS011;9426;54.118;17.948;2024-02-16T05:56:08;59.97;;;30.33;;
18592;SDS011;9426;54.118;17.948;2024-02-16T06:01:33;60.27;;;31.57;;
18592;SDS011;9426;54.118;17.948;2024-02-16T06:07:00;61.83;;;30.17;;
18592;SDS011;9426;54.118;17.948;2024-02-16T06:12:28;55.10;;;29.40;;
18592;SDS011;9426;54.118;17.948;2024-02-16T06:17:53;65.57;;;33.20;;
18592;SDS011;9426;54.118;17.948;2024-02-16T06:23:18;74.23;;;35.00;;
18592;SDS011;9426;54.118;17.948;2024-02-16T06:28:45;67.00;;;34.53;;
18592;SDS011;9426;54.118;17.948;2024-02-16T06:34:10;64.93;;;32.90;;
18592;SDS011;9426;54.118;17.948;2024-02-16T06:39:38;61.53;;;32.00;;
18592;SDS011;9426;54.118;17.948;2024-02-16T06:45:07;59.30;;;31.80;;
18592;SDS011;9426;54.118;17.948;2024-02-16T06:50:33;102.47;;;43.47;;
18592;SDS011;9426;54.118;17.948;2024-02-16T06:55:57;73.93;;;38.00;;
18592;SDS011;9426;54.118;17.948;2024-02-16T07:01:23;68.43;;;35.17;;
18592;SDS011;9426;54.118;17.948;2024-02-16T07:06:50;64.73;;;33.90;;
18592;SDS011;9426;54.118;17.948;2024-02-16T07:12:16;69.40;;;35.90;;
18592;SDS011;9426;54.118;17.948;2024-02-16T07:17:42;74.97;;;38.37;;
18592;SDS011;9426;54.118;17.948;2024-02-16T07:23:06;77.37;;;40.17;;
18592;SDS011;9426;54.118;17.948;2024-02-16T07:34:26;68.43;;;37.87;;
18592;SDS011;9426;54.118;17.948;2024-02-16T07:39:54;62.63;;;35.33;;
18592;SDS011;9426;54.118;17.948;2024-02-16T07:45:19;56.30;;;33.33;;
18592;SDS011;9426;54.118;17.948;2024-02-16T07:50:45;61.47;;;31.57;;
18592;SDS011;9426;54.118;17.948;2024-02-16T07:56:10;55.03;;;32.80;;
18592;SDS011;9426;54.118;17.948;2024-02-16T08:01:36;59.67;;;33.00;;
18592;SDS011;9426;54.118;17.948;2024-02-16T08:07:05;55.00;;;31.03;;
18592;SDS011;9426;54.118;17.948;2024-02-16T08:12:33;54.50;;;33.07;;
18592;SDS011;9426;54.118;17.948;2024-02-16T08:18:00;73.00;;;36.23;;
18592;SDS011;9426;54.118;17.948;2024-02-16T08:23:27;61.10;;;33.00;;
18592;SDS011;9426;54.118;17.948;2024-02-16T08:28:53;70.17;;;36.87;;
18592;SDS011;9426;54.118;17.948;2024-02-16T08:34:19;64.57;;;35.60;;
18592;SDS011;9426;54.118;17.948;2024-02-16T08:39:45;48.17;;;27.83;;
18592;SDS011;9426;54.118;17.948;2024-02-16T08:45:10;45.60;;;27.87;;
18592;SDS011;9426;54.118;17.948;2024-02-16T08:50:35;55.00;;;31.23;;
18592;SDS011;9426;54.118;17.948;2024-02-16T08:56:01;49.77;;;28.87;;
18592;SDS011;9426;54.118;17.948;2024-02-16T09:01:32;56.13;;;31.80;;
18592;SDS011;9426;54.118;17.948;2024-02-16T09:06:57;49.07;;;26.77;;
18592;SDS011;9426;54.118;17.948;2024-02-16T09:12:22;45.40;;;27.03;;
18592;SDS011;9426;54.118;17.948;2024-02-16T09:17:50;44.50;;;26.73;;
18592;SDS011;9426;54.118;17.948;2024-02-16T09:23:15;38.63;;;22.97;;
18592;SDS011;9426;54.118;17.948;2024-02-16T09:28:45;40.43;;;24.07;;
18592;SDS011;9426;54.118;17.948;2024-02-16T09:34:09;38.10;;;22.73;;
18592;SDS011;9426;54.118;17.948;2024-02-16T09:39:34;38.70;;;23.87;;
18592;SDS011;9426;54.118;17.948;2024-02-16T09:45:00;38.83;;;23.50;;
18592;SDS011;9426;54.118;17.948;2024-02-16T09:50:25;36.90;;;22.07;;
18592;SDS011;9426;54.118;17.948;2024-02-16T09:55:50;36.93;;;21.70;;
18592;SDS011;9426;54.118;17.948;2024-02-16T10:01:29;33.77;;;20.00;;
18592;SDS011;9426;54.118;17.948;2024-02-16T10:06:55;36.90;;;20.53;;
18592;SDS011;9426;54.118;17.948;2024-02-16T10:12:20;37.77;;;21.13;;
18592;SDS011;9426;54.118;17.948;2024-02-16T10:17:56;37.30;;;21.63;;
18592;SDS011;9426;54.118;17.948;2024-02-16T10:23:24;35.33;;;18.67;;
18592;SDS011;9426;54.118;17.948;2024-02-16T10:29:17;34.40;;;20.00;;
18592;SDS011;9426;54.118;17.948;2024-02-16T10:34:43;31.37;;;17.30;;
18592;SDS011;9426;54.118;17.948;2024-02-16T10:40:10;27.27;;;15.93;;
18592;SDS011;9426;54.118;17.948;2024-02-16T10:45:35;26.13;;;15.70;;
18592;SDS011;9426;54.118;17.948;2024-02-16T10:51:01;23.83;;;13.47;;
18592;SDS011;9426;54.118;17.948;2024-02-16T10:56:31;19.63;;;12.30;;
18592;SDS011;9426;54.118;17.948;2024-02-16T11:01:59;18.07;;;10.43;;
18592;SDS011;9426;54.118;17.948;2024-02-16T11:07:24;15.57;;;9.33;;
18592;SDS011;9426;54.118;17.948;2024-02-16T11:12:49;15.17;;;9.33;;
18592;SDS011;9426;54.118;17.948;2024-02-16T11:18:13;14.10;;;8.27;;
18592;SDS011;9426;54.118;17.948;2024-02-16T11:23:54;14.77;;;8.03;;
18592;SDS011;9426;54.118;17.948;2024-02-16T11:29:32;15.13;;;7.93;;
18592;SDS011;9426;54.118;17.948;2024-02-16T11:35:03;14.00;;;7.93;;
18592;SDS011;9426;54.118;17.948;2024-02-16T11:40:33;13.20;;;8.07;;
18592;SDS011;9426;54.118;17.948;2024-02-16T11:45:58;14.27;;;8.13;;
18592;SDS011;9426;54.118;17.948;2024-02-16T11:51:23;13.23;;;7.70;;
18592;SDS011;9426;54.118;17.948;2024-02-16T11:56:51;12.33;;;7.10;;
18592;SDS011;9426;54.118;17.948;2024-02-16T12:02:19;18.07;;;7.13;;
18592;SDS011;9426;54.118;17.948;2024-02-16T12:07:45;9.80;;;6.20;;
18592;SDS011;9426;54.118;17.948;2024-02-16T12:13:15;11.50;;;6.43;;
18592;SDS011;9426;54.118;17.948;2024-02-16T12:18:44;14.03;;;6.20;;
18592;SDS011;9426;54.118;17.948;2024-02-16T12:24:08;10.83;;;6.97;;
18592;SDS011;9426;54.118;17.948;2024-02-16T12:29:34;12.80;;;6.70;;
18592;SDS011;9426;54.118;17.948;2024-02-16T12:35:00;13.83;;;6.60;;
18592;SDS011;9426;54.118;17.948;2024-02-16T12:40:26;11.07;;;6.43;;
18592;SDS011;9426;54.118;17.948;2024-02-16T12:45:52;13.57;;;6.03;;
18592;SDS011;9426;54.118;17.948;2024-02-16T12:51:16;11.30;;;6.57;;
18592;SDS011;9426;54.118;17.948;2024-02-16T12:56:40;8.57;;;5.33;;
18592;SDS011;9426;54.118;17.948;2024-02-16T13:02:08;9.87;;;5.30;;
18592;SDS011;9426;54.118;17.948;2024-02-16T13:07:34;14.00;;;7.40;;
18592;SDS011;9426;54.118;17.948;2024-02-16T13:12:59;9.83;;;5.90;;
18592;SDS011;9426;54.118;17.948;2024-02-16T13:18:26;12.77;;;7.37;;
18592;SDS011;9426;54.118;17.948;2024-02-16T13:23:50;14.00;;;7.10;;
18592;SDS011;9426;54.118;17.948;2024-02-16T13:29:14;13.73;;;7.80;;
18592;SDS011;9426;54.118;17.948;2024-02-16T13:34:40;11.70;;;7.07;;
18592;SDS011;9426;54.118;17.948;2024-02-16T13:40:04;13.90;;;7.33;;
18592;SDS011;9426;54.118;17.948;2024-02-16T13:45:45;14.63;;;6.73;;
18592;SDS011;9426;54.118;17.948;2024-02-16T13:51:12;13.23;;;6.63;;
18592;SDS011;9426;54.118;17.948;2024-02-16T13:56:36;11.90;;;6.03;;
18592;SDS011;9426;54.118;17.948;2024-02-16T14:02:01;15.07;;;5.93;;
18592;SDS011;9426;54.118;17.948;2024-02-16T14:07:27;12.27;;;5.63;;
18592;SDS011;9426;54.118;17.948;2024-02-16T14:12:53;12.67;;;6.27;;
18592;SDS011;9426;54.118;17.948;2024-02-16T14:18:17;10.00;;;5.67;;
18592;SDS011;9426;54.118;17.948;2024-02-16T14:23:43;15.90;;;6.40;;
18592;SDS011;9426;54.118;17.948;2024-02-16T14:29:08;9.13;;;5.67;;
18592;SDS011;9426;54.118;17.948;2024-02-16T14:34:32;12.63;;;6.30;;
18592;SDS011;9426;54.118;17.948;2024-02-16T14:39:58;11.87;;;6.23;;
18592;SDS011;9426;54.118;17.948;2024-02-16T14:45:22;12.27;;;6.93;;
18592;SDS011;9426;54.118;17.948;2024-02-16T14:50:47;12.23;;;6.43;;
18592;SDS011;9426;54.118;17.948;2024-02-16T14:56:12;11.07;;;6.27;;
18592;SDS011;9426;54.118;17.948;2024-02-16T15:01:40;10.63;;;6.00;;
18592;SDS011;9426;54.118;17.948;2024-02-16T15:07:05;13.13;;;6.73;;
18592;SDS011;9426;54.118;17.948;2024-02-16T15:12:32;13.73;;;6.27;;
18592;SDS011;9426;54.118;17.948;2024-02-16T15:17:58;18.60;;;7.33;;
18592;SDS011;9426;54.118;17.948;2024-02-16T15:23:24;12.03;;;6.97;;
18592;SDS011;9426;54.118;17.948;2024-02-16T15:28:49;11.53;;;6.50;;
18592;SDS011;9426;54.118;17.948;2024-02-16T15:34:13;14.87;;;7.07;;
18592;SDS011;9426;54.118;17.948;2024-02-16T15:39:38;12.30;;;7.30;;
18592;SDS011;9426;54.118;17.948;2024-02-16T15:45:03;12.27;;;7.30;;
18592;SDS011;9426;54.118;17.948;2024-02-16T15:50:27;15.90;;;6.87;;
18592;SDS011;9426;54.118;17.948;2024-02-16T15:55:52;12.90;;;7.00;;
18592;SDS011;9426;54.118;17.948;2024-02-16T16:01:17;13.00;;;6.83;;
18592;SDS011;9426;54.118;17.948;2024-02-16T16:06:41;12.03;;;6.87;;
18592;SDS011;9426;54.118;17.948;2024-02-16T16:12:06;14.73;;;7.17;;
18592;SDS011;9426;54.118;17.948;2024-02-16T16:17:32;12.97;;;7.70;;
18592;SDS011;9426;54.118;17.948;2024-02-16T16:22:56;13.80;;;8.37;;
18592;SDS011;9426;54.118;17.948;2024-02-16T16:28:19;15.87;;;9.10;;
18592;SDS011;9426;54.118;17.948;2024-02-16T16:33:47;18.87;;;9.43;;
18592;SDS011;9426;54.118;17.948;2024-02-16T16:39:11;15.23;;;8.80;;
18592;SDS011;9426;54.118;17.948;2024-02-16T16:44:36;23.27;;;9.17;;
18592;SDS011;9426;54.118;17.948;2024-02-16T16:50:01;21.17;;;9.57;;
18592;SDS011;9426;54.118;17.948;2024-02-16T16:55:25;17.97;;;10.07;;
18592;SDS011;9426;54.118;17.948;2024-02-16T17:00:49;15.80;;;8.70;;
18592;SDS011;9426;54.118;17.948;2024-02-16T17:06:16;20.67;;;10.73;;
18592;SDS011;9426;54.118;17.948;2024-02-16T17:11:40;15.50;;;9.03;;
18592;SDS011;9426;54.118;17.948;2024-02-16T17:17:04;21.63;;;9.73;;
18592;SDS011;9426;54.118;17.948;2024-02-16T17:22:31;18.47;;;9.60;;
18592;SDS011;9426;54.118;17.948;2024-02-16T17:27:56;19.27;;;10.23;;
18592;SDS011;9426;54.118;17.948;2024-02-16T17:33:20;21.90;;;11.27;;
18592;SDS011;9426;54.118;17.948;2024-02-16T17:38:47;22.20;;;12.20;;
18592;SDS011;9426;54.118;17.948;2024-02-16T17:44:14;22.43;;;11.63;;
18592;SDS011;9426;54.118;17.948;2024-02-16T17:49:41;18.37;;;11.03;;
18592;SDS011;9426;54.118;17.948;2024-02-16T17:55:08;19.37;;;10.23;;
18592;SDS011;9426;54.118;17.948;2024-02-16T18:00:34;21.63;;;11.50;;
18592;SDS011;9426;54.118;17.948;2024-02-16T18:05:59;21.20;;;11.27;;
18592;SDS011;9426;54.118;17.948;2024-02-16T18:11:26;21.00;;;10.80;;
18592;SDS011;9426;54.118;17.948;2024-02-16T18:16:50;20.53;;;11.03;;
18592;SDS011;9426;54.118;17.948;2024-02-16T18:22:15;22.07;;;10.87;;
18592;SDS011;9426;54.118;17.948;2024-02-16T18:27:41;21.07;;;10.83;;
18592;SDS011;9426;54.118;17.948;2024-02-16T18:33:05;20.47;;;11.27;;
18592;SDS011;9426;54.118;17.948;2024-02-16T18:58:56;34.17;;;16.87;;
18592;SDS011;9426;54.118;17.948;2024-02-16T19:04:20;27.13;;;13.43;;
18592;SDS011;9426;54.118;17.948;2024-02-16T19:09:44;29.73;;;14.17;;
18592;SDS011;9426;54.118;17.948;2024-02-16T19:15:14;21.07;;;12.43;;
18592;SDS011;9426;54.118;17.948;2024-02-16T19:20:41;22.30;;;11.57;;
18592;SDS011;9426;54.118;17.948;2024-02-16T19:26:05;23.03;;;11.80;;
18592;SDS011;9426;54.118;17.948;2024-02-16T19:31:34;21.53;;;11.83;;
18592;SDS011;9426;54.118;17.948;2024-02-16T19:36:59;27.47;;;12.97;;
18592;SDS011;9426;54.118;17.948;2024-02-16T19:42:24;21.40;;;12.07;;
18592;SDS011;9426;54.118;17.948;2024-02-16T19:47:51;24.20;;;13.33;;
18592;SDS011;9426;54.118;17.948;2024-02-16T19:53:16;22.10;;;12.43;;
18592;SDS011;9426;54.118;17.948;2024-02-16T19:58:41;19.93;;;12.60;;
18592;SDS011;9426;54.118;17.948;2024-02-16T20:04:10;23.97;;;12.67;;
18592;SDS011;9426;54.118;17.948;2024-02-16T20:09:35;24.97;;;12.97;;
18592;SDS011;9426;54.118;17.948;2024-02-16T20:15:24;21.40;;;11.70;;
18592;SDS011;9426;54.118;17.948;2024-02-16T20:20:55;19.73;;;11.30;;
18592;SDS011;9426;54.118;17.948;2024-02-16T20:32:55;23.10;;;12.20;;
18592;SDS011;9426;54.118;17.948;2024-02-16T20:38:26;27.03;;;13.30;;
18592;SDS011;9426;54.118;17.948;2024-02-16T20:43:50;20.73;;;11.60;;
18592;SDS011;9426;54.118;17.948;2024-02-16T20:55:29;22.47;;;12.57;;
18592;SDS011;9426;54.118;17.948;2024-02-16T21:00:54;22.30;;;12.97;;
18592;SDS011;9426;54.118;17.948;2024-02-16T21:06:19;20.57;;;11.63;;
18592;SDS011;9426;54.118;17.948;2024-02-16T21:11:48;22.77;;;11.47;;
18592;SDS011;9426;54.118;17.948;2024-02-16T21:17:14;37.40;;;18.53;;
18592;SDS011;9426;54.118;17.948;2024-02-16T21:22:40;25.70;;;12.83;;
18592;SDS011;9426;54.118;17.948;2024-02-16T21:28:09;21.83;;;12.60;;
18592;SDS011;9426;54.118;17.948;2024-02-16T21:40:44;24.73;;;14.10;;
18592;SDS011;9426;54.118;17.948;2024-02-16T21:46:36;28.30;;;15.43;;
18592;SDS011;9426;54.118;17.948;2024-02-16T21:52:01;21.97;;;12.10;;
18592;SDS011;9426;54.118;17.948;2024-02-16T21:57:26;25.17;;;12.63;;
18592;SDS011;9426;54.118;17.948;2024-02-16T22:02:52;25.57;;;13.63;;
18592;SDS011;9426;54.118;17.948;2024-02-16T22:08:19;25.17;;;12.37;;
18592;SDS011;9426;54.118;17.948;2024-02-16T22:13:46;24.60;;;14.03;;
18592;SDS011;9426;54.118;17.948;2024-02-16T22:19:15;22.67;;;14.07;;
18592;SDS011;9426;54.118;17.948;2024-02-16T22:24:42;23.03;;;13.63;;
18592;SDS011;9426;54.118;17.948;2024-02-16T22:30:08;24.67;;;14.47;;
18592;SDS011;9426;54.118;17.948;2024-02-16T22:35:36;28.23;;;14.83;;
18592;SDS011;9426;54.118;17.948;2024-02-16T22:41:02;25.50;;;14.83;;
18592;SDS011;9426;54.118;17.948;2024-02-16T22:46:28;23.17;;;13.87;;
18592;SDS011;9426;54.118;17.948;2024-02-16T22:51:57;24.07;;;13.63;;
18592;SDS011;9426;54.118;17.948;2024-02-16T22:57:23;22.87;;;13.37;;
18592;SDS011;9426;54.118;17.948;2024-02-16T23:02:50;24.33;;;12.90;;
18592;SDS011;9426;54.118;17.948;2024-02-16T23:08:18;21.87;;;13.53;;
18592;SDS011;9426;54.118;17.948;2024-02-16T23:13:45;23.63;;;14.53;;
18592;SDS011;9426;54.118;17.948;2024-02-16T23:19:12;24.03;;;14.70;;
18592;SDS011;9426;54.118;17.948;2024-02-16T23:24:41;23.63;;;13.70;;
18592;SDS011;9426;54.118;17.948;2024-02-16T23:30:08;26.00;;;15.73;;
18592;SDS011;9426;54.118;17.948;2024-02-16T23:35:36;25.87;;;14.67;;
18592;SDS011;9426;54.118;17.948;2024-02-16T23:41:07;26.73;;;15.13;;
18592;SDS011;9426;54.118;17.948;2024-02-16T23:46:33;21.63;;;14.50;;
18592;SDS011;9426;54.118;17.948;2024-02-16T23:52:00;21.90;;;13.57;;
18592;SDS011;9426;54.118;17.948;2024-02-16T23:57:29;24.40;;;14.00;;
